VABP/BHO METAR and TAF weather

Enter ICAO airport designator
Station Type Date Time Source
VABP METAR 2022/12/04 05:00 UTC NOAA

VABP 040500Z 07003KT 4000 HZ NSC 23/11 Q1018 NOSIG


Station Type Date Time Source
VABP Decoded METAR 2022/12/04 05:00 UTC NOAA

Bhopal / Bairagarh, India (VABP) 23-17N 077-21E 523M
Dec 04, 2022 - 12:00 AM EST / 2022.12.04 0500 UTC
Wind: from the ENE (070 degrees) at 3 MPH (3 KT):0
Visibility: 2 mile(s):0
Weather: haze
Temperature: 73 F (23 C)
Dew Point: 51 F (11 C)
Relative Humidity: 46%
Pressure (altimeter): 30.06 in. Hg (1018 hPa)
ob: VABP 040500Z 07003KT 4000 HZ NSC 23/11 Q1018 NOSIG
cycle: 5

Station Type Date Time Source
VABP TAF 2022/10/09 00:00 UTC NOAA

TAF VABP 082300Z 0900/1006 18010KT 3000 -RA BR HZ SCT020 BKN100
BECMG 0904/0906 5000 -RA HZ
TEMPO 0909/0913 25010KT 3000 -TSRA SCT025 FEW030CB BKN100
BECMG 0916/0918 4000 -RA HZ SCT020 BKN100
BECMG 1001/1003 3000 -RA HZ SCT020 SCT100
BECMG 1004/1006 4000 -RA HZ SCT025 BKN100

Example: see airport list